TimePDT,TemperatureF,Dew PointF,Humidity,Sea Level PressureIn,VisibilityMPH,Wind Direction,Wind SpeedMPH,Gust SpeedMPH,PrecipitationIn,Events,Conditions,WindDirDegrees,DateUTC
12:56 AM,61.0,57.0,87,30.00,10.0,North,4.6,-,N/A,,Scattered Clouds,360,2013-07-09 07:56:00
1:12 AM,60.8,57.2,88,30.00,10.0,North,3.5,-,N/A,,Mostly Cloudy,360,2013-07-09 08:12:00
1:56 AM,62.1,57.9,86,30.01,10.0,Calm,Calm,-,N/A,,Mostly Cloudy,0,2013-07-09 08:56:00
2:32 AM,60.8,57.2,88,30.00,9.0,Calm,Calm,-,N/A,,Scattered Clouds,0,2013-07-09 09:32:00
2:56 AM,62.1,57.9,86,30.00,9.0,Calm,Calm,-,N/A,,Scattered Clouds,0,2013-07-09 09:56:00
3:09 AM,62.6,57.2,82,30.00,8.0,Calm,Calm,-,N/A,,Mostly Cloudy,0,2013-07-09 10:09:00
3:56 AM,62.1,57.9,86,30.01,9.0,Calm,Calm,-,N/A,,Overcast,0,2013-07-09 10:56:00
4:56 AM,62.1,57.9,86,30.01,8.0,NNW,5.8,-,N/A,,Overcast,340,2013-07-09 11:56:00
5:56 AM,62.1,57.9,86,30.03,7.0,Calm,Calm,-,N/A,,Overcast,0,2013-07-09 12:56:00
6:56 AM,63.0,57.9,84,30.03,5.0,Calm,Calm,-,N/A,,Haze,0,2013-07-09 13:56:00
7:56 AM,63.0,57.9,84,30.04,6.0,North,4.6,-,N/A,,Haze,350,2013-07-09 14:56:00
8:05 AM,62.6,57.2,82,30.04,5.0,North,3.5,-,N/A,,Haze,360,2013-07-09 15:05:00
8:56 AM,64.9,57.9,78,30.05,6.0,North,4.6,-,N/A,,Haze,360,2013-07-09 15:56:00
9:25 AM,66.2,57.2,73,30.04,6.0,North,5.8,-,N/A,,Haze,350,2013-07-09 16:25:00
9:56 AM,66.9,57.9,73,30.04,7.0,North,5.8,-,N/A,,Clear,10,2013-07-09 16:56:00
10:56 AM,69.1,59.0,70,30.04,7.0,NNW,6.9,-,N/A,,Clear,340,2013-07-09 17:56:00
11:56 AM,72.0,59.0,64,30.04,8.0,North,8.1,-,N/A,,Clear,360,2013-07-09 18:56:00
12:56 PM,75.0,57.9,55,30.03,9.0,NNW,5.8,-,N/A,,Clear,340,2013-07-09 19:56:00
1:56 PM,79.0,57.9,48,30.01,10.0,North,10.4,-,N/A,,Clear,350,2013-07-09 20:56:00
2:56 PM,80.1,57.0,45,30.00,10.0,North,11.5,-,N/A,,Clear,350,2013-07-09 21:56:00
3:56 PM,81.0,54.0,39,29.98,10.0,NNW,10.4,18.4,N/A,,Clear,330,2013-07-09 22:56:00
4:56 PM,79.0,57.9,48,29.97,10.0,NNW,10.4,-,N/A,,Clear,330,2013-07-09 23:56:00
5:56 PM,77.0,57.0,50,29.95,10.0,NNW,8.1,17.3,N/A,,Clear,330,2013-07-10 00:56:00
6:56 PM,73.0,57.9,59,29.95,10.0,NW,9.2,-,N/A,,Clear,320,2013-07-10 01:56:00
7:56 PM,70.0,59.0,68,29.96,10.0,NW,5.8,-,N/A,,Clear,320,2013-07-10 02:56:00
8:56 PM,68.0,57.9,70,29.97,10.0,NW,5.8,-,N/A,,Clear,310,2013-07-10 03:56:00
9:56 PM,66.0,57.0,73,29.99,10.0,WNW,4.6,-,N/A,,Clear,300,2013-07-10 04:56:00
10:56 PM,64.9,55.9,73,29.99,10.0,West,3.5,-,N/A,,Clear,280,2013-07-10 05:56:00
11:56 PM,64.0,57.0,78,30.01,10.0,NNW,9.2,-,N/A,,Clear,340,2013-07-10 06:56:00